createdAt,value
2022-12-28T00:00:59.921Z,5.98
2022-12-28T00:02:00.011Z,5.98
2022-12-28T00:02:59.873Z,6.08
2022-12-28T00:03:59.814Z,6.05
2022-12-28T00:04:59.781Z,5.99
2022-12-28T00:05:59.737Z,6.01
2022-12-28T00:06:59.758Z,6.09
2022-12-28T00:07:59.672Z,6.01
2022-12-28T00:08:59.628Z,6.01
2022-12-28T00:09:59.590Z,5.98
2022-12-28T00:11:07.536Z,5.99
2022-12-28T00:11:59.520Z,6.01
2022-12-28T00:12:59.550Z,5.99
2022-12-28T00:13:59.539Z,6.09
2022-12-28T00:14:59.412Z,6.09
2022-12-28T00:15:59.413Z,6.05
2022-12-28T00:16:59.346Z,5.99
2022-12-28T00:17:59.301Z,6.02
2022-12-28T00:18:59.339Z,5.99
2022-12-28T00:19:59.235Z,6.04
2022-12-28T00:20:59.200Z,6.04
2022-12-28T00:21:59.164Z,6.04
2022-12-28T00:22:59.123Z,6.04
2022-12-28T00:23:59.088Z,6.12
2022-12-28T00:24:59.111Z,6.07
2022-12-28T00:25:59.020Z,6.12
2022-12-28T00:26:58.975Z,6.12
2022-12-28T00:27:58.944Z,6.11
2022-12-28T00:29:04.262Z,6.11
2022-12-28T00:29:58.864Z,6.08
2022-12-28T00:30:58.882Z,6.14
2022-12-28T00:31:58.837Z,6.12
2022-12-28T00:32:58.758Z,6.16
2022-12-28T00:33:58.726Z,6.12
2022-12-28T00:34:58.759Z,6.16
2022-12-28T00:35:58.654Z,6.14
2022-12-28T00:37:08.527Z,6.12
2022-12-28T00:37:58.573Z,6.11
2022-12-28T00:38:58.551Z,6.24
2022-12-28T00:39:58.568Z,6.19
2022-12-28T00:40:58.476Z,6.22
2022-12-28T00:41:58.441Z,6.22
2022-12-28T00:42:58.399Z,6.19
2022-12-28T00:43:58.360Z,6.20
2022-12-28T00:44:58.397Z,6.14
2022-12-28T00:45:58.393Z,6.19
2022-12-28T00:46:58.260Z,6.22
2022-12-28T00:47:58.224Z,6.11
2022-12-28T00:48:58.184Z,6.14
2022-12-28T00:49:58.144Z,6.14
2022-12-28T00:50:58.180Z,6.20
2022-12-28T00:51:58.072Z,6.12
2022-12-28T00:52:58.045Z,6.14
2022-12-28T00:53:57.999Z,6.12
2022-12-28T00:54:57.967Z,6.08
2022-12-28T00:55:57.998Z,6.11
2022-12-28T00:56:57.893Z,6.11
2022-12-28T00:57:57.859Z,6.04
2022-12-28T00:58:57.823Z,6.04
2022-12-28T00:59:57.787Z,6.12
2022-12-28T01:00:57.784Z,6.09
2022-12-28T01:01:57.881Z,5.98
2022-12-28T01:02:57.712Z,5.93
2022-12-28T01:03:57.651Z,6.02
2022-12-28T01:04:57.601Z,6.05
2022-12-28T01:05:57.579Z,6.02
2022-12-28T01:06:57.585Z,5.93
2022-12-28T01:07:57.495Z,5.98
2022-12-28T01:08:57.469Z,5.98
2022-12-28T01:09:57.442Z,5.91
2022-12-28T01:10:57.382Z,5.91
2022-12-28T01:11:57.419Z,5.83
2022-12-28T01:12:57.317Z,5.79
2022-12-28T01:13:57.283Z,5.87
2022-12-28T01:14:57.237Z,5.82
2022-12-28T01:15:57.205Z,5.72
2022-12-28T01:16:57.286Z,5.73
2022-12-28T01:17:57.161Z,5.79
2022-12-28T01:18:57.096Z,5.68
2022-12-28T01:19:57.055Z,5.65
2022-12-28T01:20:57.019Z,5.59
2022-12-28T01:21:57.043Z,5.65
2022-12-28T01:22:56.955Z,5.54
2022-12-28T01:23:56.957Z,5.54
2022-12-28T01:24:56.897Z,5.56
2022-12-28T01:25:56.854Z,5.50
2022-12-28T01:27:00.152Z,5.47
2022-12-28T01:27:56.784Z,5.48
2022-12-28T01:28:56.742Z,5.41
2022-12-28T01:29:56.703Z,5.39
2022-12-28T01:30:56.693Z,5.44
2022-12-28T01:31:56.672Z,5.41
2022-12-28T01:32:56.651Z,5.43
2022-12-28T01:33:56.743Z,5.39
2022-12-28T01:34:56.517Z,5.43
2022-12-28T01:35:56.494Z,5.41
2022-12-28T01:36:56.462Z,5.33
2022-12-28T01:37:56.415Z,5.30
2022-12-28T01:38:56.379Z,5.33
2022-12-28T01:39:56.407Z,5.30
2022-12-28T01:40:56.304Z,5.38
2022-12-28T01:41:56.285Z,5.33
2022-12-28T01:42:56.228Z,5.29
2022-12-28T01:43:56.218Z,5.36
2022-12-28T01:44:56.205Z,5.26
2022-12-28T01:45:56.163Z,5.36
2022-12-28T01:46:56.097Z,5.33
2022-12-28T01:47:56.055Z,5.29
2022-12-28T01:48:56.015Z,5.30
2022-12-28T01:49:56.025Z,5.28
2022-12-28T01:50:55.935Z,5.32
2022-12-28T01:51:55.906Z,5.32
2022-12-28T01:52:55.852Z,5.25
2022-12-28T01:53:55.821Z,5.20
2022-12-28T01:54:55.783Z,5.30
2022-12-28T01:55:55.808Z,5.18
2022-12-28T01:56:55.709Z,5.17
2022-12-28T01:57:55.677Z,5.17
2022-12-28T01:58:55.637Z,5.10
2022-12-28T01:59:55.604Z,5.17
2022-12-28T02:00:55.623Z,5.21
2022-12-28T02:01:55.696Z,5.12
2022-12-28T02:02:55.543Z,5.20
2022-12-28T02:03:55.451Z,5.26
2022-12-28T02:04:55.423Z,5.15
2022-12-28T02:05:55.381Z,5.14
2022-12-28T02:06:55.334Z,5.17
2022-12-28T02:07:55.362Z,5.23
2022-12-28T02:08:55.272Z,5.29
2022-12-28T02:10:43.570Z,5.25
2022-12-28T02:10:55.196Z,5.25
2022-12-28T02:11:55.163Z,5.23
2022-12-28T02:12:55.156Z,5.17
2022-12-28T02:13:55.148Z,5.28
2022-12-28T02:14:55.046Z,5.21
2022-12-28T02:15:55.054Z,5.20
2022-12-28T02:16:55.062Z,5.30
2022-12-28T02:17:54.945Z,5.25
2022-12-28T02:18:54.903Z,5.30
2022-12-28T02:19:54.862Z,5.26
2022-12-28T02:20:54.857Z,5.25
2022-12-28T02:21:54.845Z,5.25
2022-12-28T02:22:54.766Z,5.29
2022-12-28T02:23:54.721Z,5.25
2022-12-28T02:25:12.465Z,5.25
2022-12-28T02:25:54.657Z,5.21
2022-12-28T02:26:54.697Z,5.25
2022-12-28T02:27:54.580Z,5.30
2022-12-28T02:28:54.544Z,5.35
2022-12-28T02:29:54.514Z,5.29
2022-12-28T02:30:54.480Z,5.33
2022-12-28T02:31:54.516Z,5.29
2022-12-28T02:32:54.396Z,5.28
2022-12-28T02:33:54.356Z,5.29
2022-12-28T02:34:54.315Z,5.28
2022-12-28T02:35:54.284Z,5.32
2022-12-28T02:36:54.237Z,5.32
2022-12-28T02:37:54.297Z,5.43
2022-12-28T02:38:54.173Z,5.36
2022-12-28T02:39:54.140Z,5.32
2022-12-28T02:40:54.095Z,5.32
2022-12-28T02:41:54.110Z,5.33
2022-12-28T02:42:54.050Z,5.28
2022-12-28T02:43:54.055Z,5.30
2022-12-28T02:44:53.956Z,5.36
2022-12-28T02:45:53.947Z,5.30
2022-12-28T02:46:53.879Z,5.28
2022-12-28T02:47:53.841Z,5.36
2022-12-28T02:48:53.808Z,5.30
2022-12-28T02:49:53.826Z,5.28
2022-12-28T02:50:53.728Z,5.32
2022-12-28T02:51:53.698Z,5.35
2022-12-28T02:52:53.665Z,5.28
2022-12-28T02:53:53.616Z,5.38
2022-12-28T02:54:53.584Z,5.33
2022-12-28T02:55:53.603Z,5.29
2022-12-28T02:56:53.507Z,5.33
2022-12-28T02:57:53.471Z,5.28
2022-12-28T02:58:53.502Z,5.32
2022-12-28T02:59:53.407Z,5.36
2022-12-28T03:00:53.367Z,5.29
2022-12-28T03:01:53.448Z,5.35
2022-12-28T03:02:53.374Z,5.29
2022-12-28T03:03:53.309Z,5.35
2022-12-28T03:04:53.219Z,5.36
2022-12-28T03:05:53.177Z,5.36
2022-12-28T03:06:53.136Z,5.29
2022-12-28T03:07:53.101Z,5.38
2022-12-28T03:08:53.238Z,5.30
2022-12-28T03:09:53.025Z,5.29
2022-12-28T03:10:52.999Z,5.35
2022-12-28T03:11:52.960Z,5.36
2022-12-28T03:12:52.920Z,5.43
2022-12-28T03:13:52.881Z,5.39
2022-12-28T03:14:52.893Z,5.43
2022-12-28T03:15:52.859Z,5.47
2022-12-28T03:16:52.771Z,5.46
2022-12-28T03:17:52.763Z,5.46
2022-12-28T03:18:52.706Z,5.44
2022-12-28T03:19:52.660Z,5.43
2022-12-28T03:20:52.681Z,5.41
2022-12-28T03:21:52.583Z,5.41
2022-12-28T03:22:52.549Z,5.39
2022-12-28T03:23:52.515Z,5.35
2022-12-28T03:24:52.481Z,5.39
2022-12-28T03:25:52.446Z,5.36
2022-12-28T03:26:52.467Z,5.43
2022-12-28T03:27:52.372Z,5.35
2022-12-28T03:28:52.339Z,5.32
2022-12-28T03:29:52.346Z,5.36
2022-12-28T03:30:52.376Z,5.36
2022-12-28T03:31:52.225Z,5.43
2022-12-28T03:32:52.185Z,5.36
2022-12-28T03:33:52.153Z,5.33
2022-12-28T03:34:52.107Z,5.30
2022-12-28T03:35:52.076Z,5.30
2022-12-28T03:36:52.087Z,5.33
2022-12-28T03:37:52.015Z,5.29
2022-12-28T03:38:51.990Z,5.28
2022-12-28T03:39:51.950Z,5.20
2022-12-28T03:40:51.897Z,5.26
2022-12-28T03:41:51.905Z,5.23
2022-12-28T03:42:51.815Z,5.18
2022-12-28T03:43:51.784Z,5.08
2022-12-28T03:44:51.742Z,5.10
2022-12-28T03:45:51.745Z,5.15
2022-12-28T03:46:51.735Z,5.11
2022-12-28T03:47:51.650Z,5.20
2022-12-28T03:48:51.595Z,5.12
2022-12-28T03:49:51.562Z,5.11
2022-12-28T03:50:51.525Z,5.18
2022-12-28T03:51:51.485Z,5.12
2022-12-28T03:52:51.505Z,5.10
2022-12-28T03:53:51.426Z,5.08
2022-12-28T03:54:51.404Z,5.08
2022-12-28T03:55:51.351Z,5.04
2022-12-28T03:56:51.320Z,5.00
2022-12-28T03:57:51.268Z,5.04
2022-12-28T03:58:51.330Z,5.05
2022-12-28T03:59:51.195Z,4.92
2022-12-28T04:00:51.164Z,4.97
2022-12-28T04:01:51.219Z,5.00
2022-12-28T04:02:51.179Z,4.97
2022-12-28T04:03:51.088Z,4.86
2022-12-28T04:04:51.075Z,4.84
2022-12-28T04:05:50.982Z,4.87
2022-12-28T04:06:50.931Z,4.90
2022-12-28T04:07:50.905Z,4.97
2022-12-28T04:08:50.867Z,4.89
2022-12-28T04:09:50.826Z,4.84
2022-12-28T04:10:50.855Z,4.92
2022-12-28T04:11:50.759Z,4.90
2022-12-28T04:12:50.717Z,4.86
2022-12-28T04:13:50.700Z,4.94
2022-12-28T04:14:50.652Z,4.93
2022-12-28T04:15:50.673Z,4.87
2022-12-28T04:16:50.626Z,4.89
2022-12-28T04:17:50.572Z,4.90
2022-12-28T04:18:50.560Z,4.84
2022-12-28T04:19:50.457Z,4.96
2022-12-28T04:20:50.456Z,4.93
2022-12-28T04:21:50.395Z,4.93
2022-12-28T04:22:50.356Z,4.90
2022-12-28T04:23:50.517Z,4.92
2022-12-28T04:24:50.283Z,4.89
2022-12-28T04:25:50.249Z,4.87
2022-12-28T04:26:50.217Z,4.90
2022-12-28T04:27:50.179Z,4.87
2022-12-28T04:28:50.229Z,4.93
2022-12-28T04:29:50.096Z,4.89
2022-12-28T04:30:50.067Z,4.93
2022-12-28T04:31:50.032Z,4.94
2022-12-28T04:32:49.977Z,4.93
2022-12-28T04:33:50.014Z,4.92
2022-12-28T04:34:49.920Z,4.97
2022-12-28T04:35:49.939Z,4.94
2022-12-28T04:36:49.841Z,4.94
2022-12-28T04:37:49.821Z,4.93
2022-12-28T04:38:49.817Z,4.92
2022-12-28T04:39:55.321Z,4.93
2022-12-28T04:40:49.742Z,4.92
2022-12-28T04:41:49.658Z,4.94
2022-12-28T04:42:49.625Z,4.97
2022-12-28T04:43:49.641Z,4.94
2022-12-28T04:44:49.550Z,4.96
2022-12-28T04:45:50.441Z,4.99
2022-12-28T04:46:49.527Z,4.94
2022-12-28T04:47:49.437Z,4.99
2022-12-28T04:48:49.446Z,4.94
2022-12-28T04:49:49.355Z,5.00
2022-12-28T04:50:49.324Z,4.90
2022-12-28T04:51:49.287Z,4.94
2022-12-28T04:52:49.241Z,4.94
2022-12-28T04:53:49.271Z,4.99
2022-12-28T04:54:49.185Z,5.00
2022-12-28T04:55:49.134Z,4.94
2022-12-28T04:56:49.159Z,5.00
2022-12-28T04:57:49.067Z,4.97
2022-12-28T04:58:49.087Z,4.93
2022-12-28T04:59:48.998Z,4.96
2022-12-28T05:00:49.021Z,4.97
2022-12-28T05:01:49.085Z,5.04
2022-12-28T05:02:48.949Z,5.00
2022-12-28T05:03:55.127Z,5.08
2022-12-28T05:04:48.860Z,5.10
2022-12-28T05:05:48.764Z,5.07
2022-12-28T05:06:48.731Z,5.14
2022-12-28T05:07:48.697Z,5.08
2022-12-28T05:08:48.668Z,5.11
2022-12-28T05:09:48.682Z,5.20
2022-12-28T05:10:48.597Z,5.18
2022-12-28T05:11:48.551Z,5.21
2022-12-28T05:12:48.527Z,5.23
2022-12-28T05:13:48.498Z,5.25
2022-12-28T05:14:48.445Z,5.33
2022-12-28T05:15:48.644Z,5.30
2022-12-28T05:16:48.408Z,5.33
2022-12-28T05:17:48.337Z,5.39
2022-12-28T05:18:48.304Z,5.38
2022-12-28T05:19:48.267Z,5.33
2022-12-28T05:20:48.226Z,5.35
2022-12-28T05:21:48.257Z,5.46
2022-12-28T05:22:48.149Z,5.43
2022-12-28T05:23:48.114Z,5.43
2022-12-28T05:24:48.144Z,5.46
2022-12-28T05:25:48.070Z,5.46
2022-12-28T05:26:48.011Z,5.51
2022-12-28T05:27:47.973Z,5.43
2022-12-28T05:28:47.958Z,5.53
2022-12-28T05:29:47.909Z,5.47
2022-12-28T05:30:47.924Z,5.50
2022-12-28T05:31:47.864Z,5.61
2022-12-28T05:32:47.779Z,5.68
2022-12-28T05:33:47.767Z,5.66
2022-12-28T05:34:47.718Z,5.62
2022-12-28T05:35:47.672Z,5.66
2022-12-28T05:36:47.689Z,5.66
2022-12-28T05:37:47.602Z,5.66
2022-12-28T05:38:47.571Z,5.73
2022-12-28T05:39:47.523Z,5.71
2022-12-28T05:40:47.498Z,5.75
2022-12-28T05:41:47.465Z,5.68
2022-12-28T05:42:51.434Z,5.71
2022-12-28T05:43:47.404Z,5.76
2022-12-28T05:44:47.355Z,5.71
2022-12-28T05:45:47.333Z,5.79
2022-12-28T05:46:47.310Z,5.71
2022-12-28T05:47:47.245Z,5.80
2022-12-28T05:48:47.321Z,5.79
2022-12-28T05:49:47.161Z,5.86
2022-12-28T05:50:47.127Z,5.82
2022-12-28T05:51:47.092Z,5.86
2022-12-28T05:52:47.059Z,5.93
2022-12-28T05:53:47.067Z,5.80
2022-12-28T05:54:47.047Z,5.83
2022-12-28T05:55:46.954Z,5.94
2022-12-28T05:56:46.933Z,5.97
2022-12-28T05:57:46.876Z,5.94
2022-12-28T05:58:46.854Z,5.99
2022-12-28T05:59:46.805Z,6.01
2022-12-28T06:00:46.819Z,6.04
2022-12-28T06:01:47.561Z,6.02
2022-12-28T06:02:46.784Z,5.89
2022-12-28T06:03:46.660Z,5.93
2022-12-28T06:04:46.623Z,5.89
2022-12-28T06:05:46.593Z,5.98
2022-12-28T06:06:46.609Z,6.05
2022-12-28T06:07:46.515Z,6.09
2022-12-28T06:08:46.477Z,6.05
2022-12-28T06:09:46.445Z,6.04
2022-12-28T06:10:46.405Z,5.99
2022-12-28T06:11:46.360Z,6.04
2022-12-28T06:12:46.387Z,6.11
2022-12-28T06:13:46.305Z,6.04
2022-12-28T06:14:46.257Z,6.07
2022-12-28T06:15:46.217Z,6.17
2022-12-28T06:16:46.313Z,6.17
2022-12-28T06:17:46.149Z,6.20
2022-12-28T06:18:46.181Z,6.17
2022-12-28T06:19:46.098Z,6.24
2022-12-28T06:20:46.049Z,6.19
2022-12-28T06:21:46.014Z,6.26
2022-12-28T06:22:45.964Z,6.22
2022-12-28T06:23:45.927Z,6.24
2022-12-28T06:24:45.947Z,6.27
2022-12-28T06:25:45.860Z,6.22
2022-12-28T06:26:45.827Z,6.28
2022-12-28T06:27:45.787Z,6.31
2022-12-28T06:28:45.747Z,6.17
2022-12-28T06:29:45.717Z,6.22
2022-12-28T06:30:52.255Z,6.27
2022-12-28T06:31:45.676Z,6.30
2022-12-28T06:32:45.596Z,6.24
2022-12-28T06:33:45.566Z,6.20
2022-12-28T06:34:45.528Z,6.20
2022-12-28T06:35:45.494Z,6.28
2022-12-28T06:36:45.519Z,6.11
2022-12-28T06:37:45.420Z,6.09
2022-12-28T06:38:45.405Z,6.11
2022-12-28T06:39:45.407Z,6.11
2022-12-28T06:41:12.175Z,6.11
2022-12-28T06:41:45.270Z,6.07
2022-12-28T06:42:45.335Z,6.04
2022-12-28T06:43:45.218Z,6.11
2022-12-28T06:44:45.160Z,6.02
2022-12-28T06:45:45.160Z,6.02
2022-12-28T06:46:45.092Z,6.08
2022-12-28T06:47:45.061Z,5.97
2022-12-28T06:48:45.091Z,5.91
2022-12-28T06:49:44.992Z,5.93
2022-12-28T06:50:44.970Z,5.99
2022-12-28T06:51:44.912Z,5.93
2022-12-28T06:52:44.876Z,5.98
2022-12-28T06:53:44.842Z,5.84
2022-12-28T06:54:44.867Z,5.83
2022-12-28T06:55:44.771Z,5.86
2022-12-28T06:56:44.732Z,5.80
2022-12-28T06:57:44.696Z,5.80
2022-12-28T06:58:44.682Z,5.75
2022-12-28T06:59:44.618Z,5.80
2022-12-28T07:00:44.656Z,5.84
2022-12-28T07:01:45.008Z,5.76
2022-12-28T07:02:44.616Z,5.83
2022-12-28T07:03:44.482Z,5.73
2022-12-28T07:04:44.459Z,5.87
2022-12-28T07:05:44.403Z,5.80
2022-12-28T07:06:44.439Z,5.87
2022-12-28T07:07:44.335Z,5.86
2022-12-28T07:08:44.306Z,5.83
2022-12-28T07:09:44.253Z,5.89
2022-12-28T07:10:44.237Z,5.83
2022-12-28T07:11:44.188Z,5.90
2022-12-28T07:12:44.215Z,5.91
2022-12-28T07:13:44.144Z,5.97
2022-12-28T07:14:44.088Z,5.94
2022-12-28T07:15:44.048Z,5.97
2022-12-28T07:16:44.008Z,5.99
2022-12-28T07:17:43.981Z,6.05
2022-12-28T07:18:43.990Z,6.04
2022-12-28T07:19:43.896Z,5.90
2022-12-28T07:20:43.855Z,5.99
2022-12-28T07:21:43.827Z,5.97
2022-12-28T07:22:44.761Z,5.99
2022-12-28T07:23:43.747Z,6.02
2022-12-28T07:24:43.762Z,6.11
2022-12-28T07:25:43.678Z,6.08
2022-12-28T07:26:43.636Z,6.11
2022-12-28T07:27:43.625Z,6.11
2022-12-28T07:28:43.579Z,6.11
2022-12-28T07:29:43.540Z,6.09
2022-12-28T07:30:43.565Z,6.12
2022-12-28T07:31:45.809Z,6.08
2022-12-28T07:32:43.427Z,6.19
2022-12-28T07:33:43.393Z,6.20
2022-12-28T07:34:43.368Z,6.27
2022-12-28T07:35:43.361Z,6.17
2022-12-28T07:36:43.350Z,6.19
2022-12-28T07:37:43.243Z,6.24
2022-12-28T07:38:43.207Z,6.28
2022-12-28T07:39:43.169Z,6.24
2022-12-28T07:40:43.144Z,6.22
2022-12-28T07:41:43.104Z,6.26
2022-12-28T07:42:43.130Z,6.28
2022-12-28T07:43:43.029Z,6.27
2022-12-28T07:44:48.810Z,6.28
2022-12-28T07:45:42.986Z,6.22
2022-12-28T07:46:42.941Z,6.24
2022-12-28T07:47:42.880Z,6.33
2022-12-28T07:48:42.907Z,6.30
2022-12-28T07:49:42.811Z,6.41
2022-12-28T07:50:42.775Z,6.36
2022-12-28T07:51:42.731Z,6.36
2022-12-28T07:52:42.711Z,6.36
2022-12-28T07:53:42.661Z,6.39
2022-12-28T07:54:43.137Z,6.36
2022-12-28T07:55:42.601Z,6.41
2022-12-28T07:56:43.624Z,6.33
2022-12-28T07:57:42.518Z,6.41
2022-12-28T07:59:34.215Z,6.36
2022-12-28T08:00:34.220Z,6.42
2022-12-28T08:01:34.286Z,6.36
2022-12-28T08:02:34.127Z,6.31
2022-12-28T08:03:34.077Z,6.42
2022-12-28T08:04:34.024Z,6.38
2022-12-28T08:05:33.986Z,6.35
2022-12-28T08:06:34.014Z,6.46
2022-12-28T08:07:33.915Z,6.52
2022-12-28T08:08:33.874Z,6.49
2022-12-28T08:09:33.844Z,6.45
2022-12-28T08:10:33.804Z,6.49
2022-12-28T08:11:33.767Z,6.51
2022-12-28T08:12:33.801Z,6.48
2022-12-28T08:13:33.693Z,6.49
2022-12-28T08:14:33.660Z,6.46
2022-12-28T08:15:33.674Z,6.46
2022-12-28T08:16:33.611Z,6.60
2022-12-28T08:17:33.548Z,6.64
2022-12-28T08:18:33.580Z,6.48
2022-12-28T08:19:33.474Z,6.49
2022-12-28T08:20:33.443Z,6.60
2022-12-28T08:21:33.412Z,6.62
2022-12-28T08:22:33.381Z,6.67
2022-12-28T08:23:33.338Z,6.67
2022-12-28T08:24:33.371Z,6.67
2022-12-28T08:25:33.274Z,6.70
2022-12-28T08:26:33.232Z,6.59
2022-12-28T08:27:38.329Z,6.67
2022-12-28T08:28:33.164Z,6.67
2022-12-28T08:29:33.128Z,6.72
2022-12-28T08:30:33.151Z,6.79
2022-12-28T08:31:33.110Z,6.85
2022-12-28T08:32:33.023Z,6.82
2022-12-28T08:33:32.984Z,6.89
2022-12-28T08:34:32.941Z,6.89
2022-12-28T08:35:32.920Z,6.88
2022-12-28T08:36:32.953Z,6.99
2022-12-28T08:37:32.842Z,6.95
2022-12-28T08:38:32.803Z,7.10
2022-12-28T08:39:32.773Z,7.06
2022-12-28T08:40:32.726Z,7.11
2022-12-28T08:41:32.698Z,7.18
2022-12-28T08:42:32.724Z,7.15
2022-12-28T08:43:32.621Z,7.31
2022-12-28T08:44:32.596Z,7.25
2022-12-28T08:45:32.606Z,7.33
2022-12-28T08:46:32.785Z,7.40
2022-12-28T08:47:32.485Z,7.43
2022-12-28T08:48:32.506Z,7.48
2022-12-28T08:49:32.413Z,7.43
2022-12-28T08:50:32.429Z,7.48
2022-12-28T08:51:32.353Z,7.48
2022-12-28T08:52:32.301Z,7.47
2022-12-28T08:53:32.271Z,7.48
2022-12-28T08:54:32.314Z,7.50
2022-12-28T08:55:32.262Z,7.60
2022-12-28T08:56:32.171Z,7.53
2022-12-28T08:57:32.122Z,7.56
2022-12-28T08:58:32.096Z,7.58
2022-12-28T08:59:32.059Z,7.66
2022-12-28T09:00:32.087Z,7.57
2022-12-28T09:01:35.905Z,7.51
2022-12-28T09:02:32.039Z,7.67
2022-12-28T09:03:31.950Z,7.67
2022-12-28T09:04:31.884Z,7.72
2022-12-28T09:05:37.534Z,7.66
2022-12-28T09:06:31.867Z,7.70
2022-12-28T09:07:31.779Z,7.70
2022-12-28T09:08:31.736Z,7.67
2022-12-28T09:09:31.766Z,7.72
2022-12-28T09:10:31.679Z,7.75
2022-12-28T09:11:31.650Z,7.82
2022-12-28T09:12:31.658Z,7.75
2022-12-28T09:13:31.565Z,7.75
2022-12-28T09:14:31.553Z,7.79
2022-12-28T09:15:31.497Z,7.73
2022-12-28T09:16:31.459Z,7.75
2022-12-28T09:17:31.429Z,7.77
2022-12-28T09:18:31.468Z,7.73
2022-12-28T09:19:31.353Z,7.75
2022-12-28T09:20:31.333Z,7.77
2022-12-28T09:21:31.301Z,7.79
2022-12-28T09:22:31.256Z,7.80
2022-12-28T09:23:31.223Z,7.82
2022-12-28T09:24:31.260Z,7.76
2022-12-28T09:25:31.147Z,7.83
2022-12-28T09:26:31.166Z,7.75
2022-12-28T09:27:31.073Z,7.82
2022-12-28T09:28:31.061Z,7.85
2022-12-28T09:29:30.996Z,7.82
2022-12-28T09:30:31.020Z,7.94
2022-12-28T09:31:30.968Z,7.93
2022-12-28T09:32:30.901Z,7.95
2022-12-28T09:33:30.864Z,7.95
2022-12-28T09:34:38.572Z,8.05
2022-12-28T09:35:30.861Z,8.03
2022-12-28T09:36:30.759Z,8.05
2022-12-28T09:37:30.729Z,7.95
2022-12-28T09:38:30.691Z,8.09
2022-12-28T09:39:30.737Z,8.19
2022-12-28T09:40:30.620Z,8.19
2022-12-28T09:41:30.649Z,8.06
2022-12-28T09:42:30.541Z,8.10
2022-12-28T09:43:30.519Z,8.12
2022-12-28T09:44:30.477Z,8.06
2022-12-28T09:45:30.438Z,8.13
2022-12-28T09:46:30.439Z,8.18
2022-12-28T09:47:30.436Z,8.15
2022-12-28T09:48:30.332Z,8.24
2022-12-28T09:49:30.298Z,8.26
2022-12-28T09:50:30.484Z,8.23
2022-12-28T09:51:30.232Z,8.23
2022-12-28T09:52:30.201Z,8.19
2022-12-28T09:53:30.225Z,8.31
2022-12-28T09:54:30.129Z,8.27
2022-12-28T09:55:30.107Z,8.31
2022-12-28T09:56:30.060Z,8.30
2022-12-28T09:57:30.024Z,8.36
2022-12-28T09:58:29.993Z,8.41
2022-12-28T09:59:30.021Z,8.37
2022-12-28T10:00:29.916Z,8.49
2022-12-28T10:01:30.001Z,8.46
2022-12-28T10:02:30.041Z,8.48
2022-12-28T10:03:29.887Z,8.51
2022-12-28T10:04:29.779Z,8.44
2022-12-28T10:05:29.814Z,8.34
2022-12-28T10:06:29.714Z,8.33
2022-12-28T10:07:29.673Z,8.41
2022-12-28T10:08:29.665Z,8.41
2022-12-28T10:09:29.623Z,8.37
2022-12-28T10:10:29.565Z,8.30
2022-12-28T10:11:29.624Z,8.28
2022-12-28T10:12:29.507Z,8.38
2022-12-28T10:13:53.496Z,8.42
2022-12-28T10:14:29.432Z,8.45
2022-12-28T10:15:29.400Z,8.46
2022-12-28T10:16:29.453Z,8.56
2022-12-28T10:17:29.386Z,8.61
2022-12-28T10:18:30.098Z,8.56
2022-12-28T10:19:29.274Z,8.55
2022-12-28T10:20:29.229Z,8.56
2022-12-28T10:21:32.672Z,8.60
2022-12-28T10:22:29.159Z,8.55
2022-12-28T10:23:29.186Z,8.58
2022-12-28T10:24:31.816Z,8.61
2022-12-28T10:25:29.052Z,8.64
2022-12-28T10:26:29.012Z,8.66
2022-12-28T10:27:28.995Z,8.63
2022-12-28T10:28:28.946Z,8.63
2022-12-28T10:29:28.976Z,8.63
2022-12-28T10:30:28.878Z,8.61
2022-12-28T10:31:28.843Z,8.70
2022-12-28T10:32:28.812Z,8.71
2022-12-28T10:33:28.810Z,8.67
2022-12-28T10:34:33.413Z,8.70
2022-12-28T10:35:28.712Z,8.71
2022-12-28T10:36:31.696Z,8.66
2022-12-28T10:37:28.625Z,8.71
2022-12-28T10:38:28.600Z,8.73
2022-12-28T10:39:28.577Z,8.70
2022-12-28T10:40:28.602Z,8.78
2022-12-28T10:41:28.495Z,8.87
2022-12-28T10:42:28.482Z,8.84
2022-12-28T10:43:28.422Z,8.99
2022-12-28T10:44:43.669Z,9.02
2022-12-28T10:45:28.397Z,9.00
2022-12-28T10:46:28.416Z,9.04
2022-12-28T10:47:28.319Z,9.18
2022-12-28T10:48:28.253Z,9.14
2022-12-28T10:49:28.213Z,9.18
2022-12-28T10:50:37.286Z,9.21
2022-12-28T10:51:28.184Z,9.18
2022-12-28T10:52:28.186Z,9.25
2022-12-28T10:53:28.097Z,9.37
2022-12-28T10:54:30.707Z,9.40
2022-12-28T10:55:28.008Z,9.43
2022-12-28T10:56:28.037Z,9.46
2022-12-28T10:57:27.939Z,9.44
2022-12-28T10:58:30.127Z,9.41
2022-12-28T10:59:27.883Z,9.44
2022-12-28T11:00:27.869Z,9.46
2022-12-28T11:01:27.880Z,9.36
2022-12-28T11:02:28.044Z,9.37
2022-12-28T11:03:27.805Z,9.48
2022-12-28T11:04:27.774Z,9.41
2022-12-28T11:05:27.664Z,9.44
2022-12-28T11:06:28.143Z,9.41
2022-12-28T11:07:27.631Z,9.48
2022-12-28T11:08:27.571Z,9.43
2022-12-28T11:09:27.539Z,9.48
2022-12-28T11:10:27.544Z,9.48
2022-12-28T11:11:27.459Z,9.48
2022-12-28T11:12:27.451Z,9.58
2022-12-28T11:13:27.416Z,9.55
2022-12-28T11:14:27.356Z,9.47
2022-12-28T11:15:27.333Z,9.41
2022-12-28T11:16:27.405Z,9.43
2022-12-28T11:17:27.266Z,9.40
2022-12-28T11:18:27.222Z,9.37
2022-12-28T11:19:27.195Z,9.43
2022-12-28T11:20:27.158Z,9.46
2022-12-28T11:21:27.143Z,9.46
2022-12-28T11:22:27.153Z,9.44
2022-12-28T11:23:27.061Z,9.43
2022-12-28T11:24:27.149Z,9.43
2022-12-28T11:25:26.982Z,9.40
2022-12-28T11:26:26.958Z,9.41
2022-12-28T11:27:26.913Z,9.44
2022-12-28T11:28:26.954Z,9.39
2022-12-28T11:29:26.860Z,9.41
2022-12-28T11:30:26.823Z,9.29
2022-12-28T11:31:26.825Z,9.36
2022-12-28T11:32:26.810Z,9.23
2022-12-28T11:33:26.725Z,9.26
2022-12-28T11:34:26.686Z,9.22
2022-12-28T11:35:26.647Z,9.23
2022-12-28T11:36:26.619Z,9.19
2022-12-28T11:37:26.632Z,9.16
2022-12-28T11:38:26.560Z,9.19
2022-12-28T11:39:26.518Z,9.21
2022-12-28T11:40:26.481Z,9.14
2022-12-28T11:41:33.256Z,9.10
2022-12-28T11:42:39.178Z,9.13
2022-12-28T11:43:26.372Z,9.19
2022-12-28T11:44:26.338Z,9.19
2022-12-28T11:45:26.341Z,9.19
2022-12-28T11:46:26.269Z,9.21
2022-12-28T11:47:28.559Z,9.19
2022-12-28T11:48:26.197Z,9.19
2022-12-28T11:49:26.167Z,9.16
2022-12-28T11:50:26.121Z,9.22
2022-12-28T11:51:26.088Z,9.28
2022-12-28T11:52:26.118Z,9.25
2022-12-28T11:53:26.025Z,9.28
2022-12-28T11:54:25.990Z,9.34
2022-12-28T11:55:25.958Z,9.40
2022-12-28T11:56:25.918Z,9.43
2022-12-28T11:57:25.882Z,9.44
2022-12-28T11:58:25.965Z,9.48
2022-12-28T11:59:25.833Z,9.56
2022-12-28T12:00:25.776Z,9.56
2022-12-28T12:01:25.808Z,9.65
2022-12-28T12:02:25.755Z,9.69
2022-12-28T12:03:25.702Z,9.61
2022-12-28T12:04:25.726Z,9.62
2022-12-28T12:05:25.614Z,9.65
2022-12-28T12:06:32.077Z,9.76
2022-12-28T12:07:31.086Z,9.72
2022-12-28T12:08:25.512Z,9.74
2022-12-28T12:09:25.499Z,9.76
2022-12-28T12:10:25.522Z,9.82
2022-12-28T12:11:25.422Z,9.97
2022-12-28T12:12:25.374Z,9.97
2022-12-28T12:13:25.354Z,10.01
2022-12-28T12:14:25.318Z,10.13
2022-12-28T12:15:25.278Z,10.13
2022-12-28T12:16:25.362Z,10.31
2022-12-28T12:17:25.219Z,10.28
2022-12-28T12:18:25.172Z,10.41
2022-12-28T12:19:25.141Z,10.35
2022-12-28T12:20:25.120Z,10.46
2022-12-28T12:21:25.092Z,10.54
2022-12-28T12:22:25.083Z,10.56
2022-12-28T12:23:25.001Z,10.59
2022-12-28T12:24:24.968Z,10.67
2022-12-28T12:25:24.943Z,10.56
2022-12-28T12:26:24.908Z,10.54
2022-12-28T12:27:24.863Z,10.38
2022-12-28T12:28:24.895Z,10.41
2022-12-28T12:29:24.792Z,10.42
2022-12-28T12:30:24.774Z,10.37
2022-12-28T12:31:24.770Z,10.35
2022-12-28T12:32:24.715Z,10.26
2022-12-28T12:33:24.669Z,10.31
2022-12-28T12:34:24.690Z,10.31
2022-12-28T12:35:24.609Z,10.31
2022-12-28T12:36:24.599Z,10.38
2022-12-28T12:37:24.529Z,10.37
2022-12-28T12:38:24.498Z,10.33
2022-12-28T12:39:24.468Z,10.41
2022-12-28T12:40:24.498Z,10.41
2022-12-28T12:41:24.407Z,10.49
2022-12-28T12:42:24.356Z,10.51
2022-12-28T12:43:24.411Z,10.53
2022-12-28T12:44:24.299Z,10.54
2022-12-28T12:45:24.264Z,10.63
2022-12-28T12:46:24.317Z,10.53
2022-12-28T12:47:24.197Z,10.63
2022-12-28T12:48:24.163Z,10.69
2022-12-28T12:49:24.126Z,10.61
2022-12-28T12:50:24.094Z,10.61
2022-12-28T12:51:24.055Z,10.64
2022-12-28T12:52:24.358Z,10.68
2022-12-28T12:53:24.018Z,10.68
2022-12-28T12:54:23.968Z,10.61
2022-12-28T12:55:23.937Z,10.64
2022-12-28T12:56:23.893Z,10.67
2022-12-28T12:57:23.908Z,10.68
2022-12-28T12:58:23.838Z,10.59
2022-12-28T12:59:23.807Z,10.61
2022-12-28T13:00:23.761Z,10.64
2022-12-28T13:01:23.836Z,10.68
2022-12-28T13:02:23.963Z,10.56
2022-12-28T13:03:23.869Z,10.67
2022-12-28T13:04:23.633Z,10.57
2022-12-28T13:05:23.607Z,10.53
2022-12-28T13:06:23.555Z,10.44
2022-12-28T13:07:23.591Z,10.49
2022-12-28T13:08:23.549Z,10.49
2022-12-28T13:09:23.461Z,10.38
2022-12-28T13:10:23.423Z,10.40
2022-12-28T13:11:23.389Z,10.42
2022-12-28T13:12:23.419Z,10.42
2022-12-28T13:13:23.332Z,10.41
2022-12-28T13:14:23.305Z,10.38
2022-12-28T13:15:23.334Z,10.35
2022-12-28T13:16:23.282Z,10.33
2022-12-28T13:17:23.262Z,10.34